Time;durP1;ratioP1;P1;durP2;ratioP2;P2;SDS_P1;SDS_P2;PMS_P1;PMS_P2;Temp;Humidity;BMP_temperature;BMP_pressure;BME280_temperature;BME280_humidity;BME280_pressure;Samples;Min_cycle;Max_cycle;Signal;HPM_P1;HPM_P2
2022/01/02 00:00:16;;;;;;;;;;;11.80;99.90;;;;;;5014445;28;19937;-73
2022/01/02 00:02:42;;;;;;;;;;;11.80;99.90;;;;;;5013847;28;20344;-74
2022/01/02 00:05:09;;;;;;;;;;;11.80;99.90;;;;;;5013738;28;19992;-72
2022/01/02 00:07:40;;;;;;;;;;;11.80;99.90;;;;;;5014014;28;20339;-72
2022/01/02 00:10:07;;;;;;;;;;;11.80;99.90;;;;;;5013543;28;19914;-73
2022/01/02 00:12:33;;;;;;;;;;;11.80;99.90;;;;;;5013431;28;19928;-73
2022/01/02 00:15:01;;;;;;;;;;;11.80;99.90;;;;;;5014216;28;19937;-73
2022/01/02 00:17:29;;;;;;;;;;;11.80;99.90;;;;;;5013518;28;19914;-71
2022/01/02 00:19:57;;;;;;;;;;;11.90;99.90;;;;;;5013705;28;19918;-72
2022/01/02 00:22:35;;;;;;;;;;;11.80;99.90;;;;;;5013613;28;19920;-71
2022/01/02 00:25:03;;;;;;;;;;;11.90;99.90;;;;;;5013431;28;20343;-72
2022/01/02 00:27:30;;;;;;;;;;;11.90;99.90;;;;;;5013438;28;20016;-71
2022/01/02 00:29:55;;;;;;;;;;;11.90;99.90;;;;;;5013955;28;20240;-73
2022/01/02 00:32:21;;;;;;;;;;;11.90;99.90;;;;;;5012197;28;19926;-71
2022/01/02 00:34:49;;;;;;;;;;;11.90;99.90;;;;;;5013475;28;20403;-73
2022/01/02 00:37:14;;;;;;;;;;;11.90;99.90;;;;;;5013757;28;19913;-73
2022/01/02 00:39:42;;;;;;;;;;;11.90;99.90;;;;;;5013320;28;19996;-72
2022/01/02 00:42:14;;;;;;;;;;;11.90;99.90;;;;;;5013779;28;20001;-72
2022/01/02 00:44:56;;;;;;;;;;;11.90;99.90;;;;;;5013167;28;19917;-71
2022/01/02 00:47:25;;;;;;;;;;;11.90;99.90;;;;;;5012106;28;20004;-71
2022/01/02 00:49:56;;;;;;;;;;;11.90;99.90;;;;;;5013272;28;19925;-71
2022/01/02 00:52:22;;;;;;;;;;;12.00;99.90;;;;;;5012212;28;19913;-72
2022/01/02 00:54:47;;;;;;;;;;;11.90;99.90;;;;;;5011991;28;19924;-72
2022/01/02 00:57:14;;;;;;;;;;;12.00;99.90;;;;;;5013591;28;19913;-72
2022/01/02 00:59:46;;;;;;;;;;;12.00;99.90;;;;;;5012841;28;19939;-72
2022/01/02 01:02:14;;;;;;;;;;;12.00;99.90;;;;;;5013095;28;19921;-72
2022/01/02 01:04:41;;;;;;;;;;;12.00;99.90;;;;;;5012887;28;19925;-71
2022/01/02 01:07:07;;;;;;;;;;;12.00;99.90;;;;;;5013158;28;20343;-72
2022/01/02 01:09:33;;;;;;;;;;;12.00;99.90;;;;;;5012095;28;19920;-73
2022/01/02 01:12:00;;;;;;;;;;;12.00;99.90;;;;;;5013469;28;20001;-73
2022/01/02 01:14:26;;;;;;;;;;;12.00;99.90;;;;;;5012546;28;19913;-72
2022/01/02 01:16:52;;;;;;;;;;;12.00;99.90;;;;;;5012644;28;19928;-73
2022/01/02 01:19:17;;;;;;;;;;;12.10;99.90;;;;;;5011528;28;19914;-72
2022/01/02 01:21:43;;;;;;;;;;;12.10;99.90;;;;;;5012447;28;19920;-73
2022/01/02 01:24:08;;;;;;;;;;;12.20;99.90;;;;;;5013186;28;20268;-72
2022/01/02 01:26:34;;;;;;;;;;;12.20;99.90;;;;;;5012584;28;20298;-73
2022/01/02 01:29:00;;;;;;;;;;;12.30;99.90;;;;;;5012314;28;19914;-73
2022/01/02 01:31:25;;;;;;;;;;;12.30;99.90;;;;;;5012392;28;19929;-73
2022/01/02 01:33:51;;;;;;;;;;;12.30;99.90;;;;;;5012380;28;20228;-71
2022/01/02 01:36:16;;;;;;;;;;;12.30;99.90;;;;;;5011735;28;20004;-73
2022/01/02 01:38:42;;;;;;;;;;;12.30;99.90;;;;;;5012335;28;19914;-73
2022/01/02 01:41:11;;;;;;;;;;;12.30;99.90;;;;;;5011204;28;19928;-72
2022/01/02 01:43:39;;;;;;;;;;;12.40;99.90;;;;;;5011207;28;19925;-72
2022/01/02 01:46:05;;;;;;;;;;;12.40;99.90;;;;;;5012291;28;19984;-71
2022/01/02 01:48:31;;;;;;;;;;;12.40;99.90;;;;;;5012376;28;20071;-72
2022/01/02 01:50:57;;;;;;;;;;;12.50;99.90;;;;;;5011565;28;20332;-72
2022/01/02 01:53:22;;;;;;;;;;;12.40;99.90;;;;;;5012082;28;19913;-72
2022/01/02 01:55:48;;;;;;;;;;;12.50;99.90;;;;;;5012283;28;19917;-71
2022/01/02 01:58:14;;;;;;;;;;;12.50;99.90;;;;;;5012094;28;20000;-71
2022/01/02 02:00:40;;;;;;;;;;;12.50;99.90;;;;;;5012000;28;20000;-73
2022/01/02 02:03:05;;;;;;;;;;;12.50;99.90;;;;;;5012614;28;20023;-72
2022/01/02 02:05:31;;;;;;;;;;;12.50;99.90;;;;;;5016146;28;19913;-72
2022/01/02 02:07:57;;;;;;;;;;;12.60;99.90;;;;;;5016047;28;20303;-72
2022/01/02 02:10:26;;;;;;;;;;;12.60;99.90;;;;;;5015995;28;20509;-72
2022/01/02 02:12:52;;;;;;;;;;;12.60;99.90;;;;;;5015779;28;19913;-71
2022/01/02 02:15:18;;;;;;;;;;;12.60;99.90;;;;;;5015152;28;20279;-72
2022/01/02 02:17:44;;;;;;;;;;;12.70;99.90;;;;;;5016151;28;19918;-71
2022/01/02 02:20:11;;;;;;;;;;;12.70;99.90;;;;;;5015910;28;19913;-71
2022/01/02 02:22:40;;;;;;;;;;;12.70;99.90;;;;;;5015823;28;19949;-72
2022/01/02 02:25:07;;;;;;;;;;;12.80;99.90;;;;;;5015853;28;20012;-73
2022/01/02 02:27:32;;;;;;;;;;;12.80;99.90;;;;;;5014717;28;19910;-72
2022/01/02 02:29:58;;;;;;;;;;;12.80;99.90;;;;;;5016249;28;19916;-73
2022/01/02 02:32:24;;;;;;;;;;;12.90;99.90;;;;;;5014424;28;19936;-72
2022/01/02 02:34:49;;;;;;;;;;;12.80;99.90;;;;;;5015641;28;20195;-73
2022/01/02 02:37:15;;;;;;;;;;;12.90;99.90;;;;;;5035252;28;20000;-72
2022/01/02 02:39:40;;;;;;;;;;;12.90;99.90;;;;;;5035305;28;19924;-73
2022/01/02 02:42:14;;;;;;;;;;;12.90;99.90;;;;;;5035737;28;20331;-72
2022/01/02 02:44:40;;;;;;;;;;;12.90;99.90;;;;;;5035299;28;19957;-71
2022/01/02 02:49:50;;;;;;;;;;;12.90;99.90;;;;;;5035200;28;19932;-72
2022/01/02 02:52:31;;;;;;;;;;;12.80;99.90;;;;;;5035239;28;19992;-71
2022/01/02 02:54:57;;;;;;;;;;;12.90;99.90;;;;;;5033944;28;19913;-71
2022/01/02 02:57:22;;;;;;;;;;;12.90;99.90;;;;;;5034620;28;20335;-71
2022/01/02 02:59:47;;;;;;;;;;;12.90;99.90;;;;;;5034494;28;20017;-72
2022/01/02 03:02:13;;;;;;;;;;;12.90;99.90;;;;;;5035001;28;19975;-72
2022/01/02 03:04:38;;;;;;;;;;;12.90;99.90;;;;;;5034765;28;19921;-72
2022/01/02 03:07:04;;;;;;;;;;;12.90;99.90;;;;;;5034807;28;19924;-72
2022/01/02 03:09:41;;;;;;;;;;;13.00;99.90;;;;;;5034795;28;19974;-72
2022/01/02 03:12:08;;;;;;;;;;;13.00;99.90;;;;;;5034103;28;19979;-72
2022/01/02 03:14:33;;;;;;;;;;;13.00;99.90;;;;;;5034040;28;19913;-72
2022/01/02 03:16:59;;;;;;;;;;;13.00;99.90;;;;;;5033069;28;20080;-72
2022/01/02 03:19:25;;;;;;;;;;;13.00;99.90;;;;;;5034531;28;19944;-72
2022/01/02 03:21:50;;;;;;;;;;;13.00;99.90;;;;;;5034455;28;19963;-72
2022/01/02 03:24:16;;;;;;;;;;;13.10;99.90;;;;;;5034726;28;19924;-72
2022/01/02 03:26:41;;;;;;;;;;;13.10;99.90;;;;;;5034580;28;19913;-71
2022/01/02 03:29:07;;;;;;;;;;;13.10;99.90;;;;;;5034412;28;20423;-72
2022/01/02 03:31:32;;;;;;;;;;;13.10;99.90;;;;;;5034202;28;19921;-72
2022/01/02 03:33:57;;;;;;;;;;;13.00;99.90;;;;;;5033305;28;20593;-73
2022/01/02 03:36:23;;;;;;;;;;;13.10;99.90;;;;;;5034002;28;19913;-71
2022/01/02 03:38:49;;;;;;;;;;;13.00;99.90;;;;;;5034674;28;19996;-73
2022/01/02 03:41:14;;;;;;;;;;;13.10;99.90;;;;;;5034072;28;19978;-72
2022/01/02 03:43:40;;;;;;;;;;;13.00;99.90;;;;;;5033852;28;20392;-72
2022/01/02 03:46:05;;;;;;;;;;;13.00;99.90;;;;;;5034039;28;20406;-72
2022/01/02 03:48:32;;;;;;;;;;;13.10;99.90;;;;;;5033925;28;19990;-72
2022/01/02 03:50:58;;;;;;;;;;;13.10;99.90;;;;;;5034469;28;19905;-72
2022/01/02 03:53:23;;;;;;;;;;;13.00;99.90;;;;;;5032779;28;19913;-72
2022/01/02 03:55:49;;;;;;;;;;;13.00;99.90;;;;;;5032869;28;19971;-72
2022/01/02 03:58:14;;;;;;;;;;;13.00;99.90;;;;;;5033933;28;19913;-73
2022/01/02 04:00:40;;;;;;;;;;;13.00;99.90;;;;;;5033812;28;19924;-72
2022/01/02 04:03:05;;;;;;;;;;;13.00;99.90;;;;;;5033999;28;20004;-72
2022/01/02 04:05:31;;;;;;;;;;;13.00;99.90;;;;;;5033673;28;19923;-72
2022/01/02 04:07:56;;;;;;;;;;;13.00;99.90;;;;;;5033720;28;20172;-73
2022/01/02 04:10:22;;;;;;;;;;;12.90;99.90;;;;;;5033903;28;19913;-73
2022/01/02 04:12:47;;;;;;;;;;;13.00;99.90;;;;;;5033614;28;19924;-72
2022/01/02 04:15:14;;;;;;;;;;;13.00;99.90;;;;;;5033885;28;19928;-72
2022/01/02 04:17:40;;;;;;;;;;;13.00;99.90;;;;;;5033567;28;19917;-71
2022/01/02 04:20:06;;;;;;;;;;;13.00;99.90;;;;;;5033429;28;20004;-73
2022/01/02 04:22:32;;;;;;;;;;;13.00;99.90;;;;;;5033343;28;19921;-72
2022/01/02 04:24:57;;;;;;;;;;;13.00;99.90;;;;;;5033860;28;19927;-72
2022/01/02 04:27:24;;;;;;;;;;;13.00;99.90;;;;;;5032035;28;19920;-72
2022/01/02 04:29:49;;;;;;;;;;;13.00;99.90;;;;;;5033769;28;19909;-72
2022/01/02 04:32:15;;;;;;;;;;;13.00;99.90;;;;;;5032963;28;20012;-71
2022/01/02 04:34:41;;;;;;;;;;;13.10;99.90;;;;;;5033112;28;20326;-72
2022/01/02 04:37:07;;;;;;;;;;;13.00;99.90;;;;;;5033098;28;19963;-72
2022/01/02 04:39:33;;;;;;;;;;;13.10;99.90;;;;;;5032909;28;19909;-71
2022/01/02 04:41:59;;;;;;;;;;;13.00;99.90;;;;;;5033552;28;19921;-71
2022/01/02 04:44:25;;;;;;;;;;;13.10;99.90;;;;;;5033101;28;19917;-73
2022/01/02 04:46:50;;;;;;;;;;;13.10;99.90;;;;;;5032689;28;19914;-71
2022/01/02 04:49:16;;;;;;;;;;;13.10;99.90;;;;;;5032977;28;19923;-72
2022/01/02 04:51:41;;;;;;;;;;;13.10;99.90;;;;;;5032858;28;19913;-72
2022/01/02 04:54:07;;;;;;;;;;;13.10;99.90;;;;;;5033185;28;19945;-72
2022/01/02 04:56:33;;;;;;;;;;;13.10;99.90;;;;;;5032872;28;19979;-72
2022/01/02 04:58:58;;;;;;;;;;;13.10;99.90;;;;;;5032711;28;20178;-72
2022/01/02 05:01:24;;;;;;;;;;;13.10;99.90;;;;;;5031658;28;20391;-72
2022/01/02 05:03:49;;;;;;;;;;;13.20;99.90;;;;;;5032580;28;19921;-72
2022/01/02 05:06:15;;;;;;;;;;;13.10;99.90;;;;;;5032833;28;19960;-72
2022/01/02 05:08:43;;;;;;;;;;;13.10;99.90;;;;;;5032811;28;19913;-72
2022/01/02 05:11:09;;;;;;;;;;;13.10;99.90;;;;;;5032343;28;19917;-72
2022/01/02 05:13:35;;;;;;;;;;;13.10;99.90;;;;;;5031358;28;19996;-72
2022/01/02 05:16:00;;;;;;;;;;;13.10;99.90;;;;;;5032474;28;19913;-73
2022/01/02 05:18:26;;;;;;;;;;;13.10;99.90;;;;;;5032239;28;19921;-72
2022/01/02 05:20:51;;;;;;;;;;;13.00;99.90;;;;;;5032926;28;19959;-72
2022/01/02 05:23:17;;;;;;;;;;;13.00;99.90;;;;;;5032152;28;19963;-72
2022/01/02 05:25:43;;;;;;;;;;;13.00;99.90;;;;;;5032134;28;19921;-71
2022/01/02 05:28:09;;;;;;;;;;;13.00;99.90;;;;;;5032252;28;20351;-72
2022/01/02 05:30:36;;;;;;;;;;;13.00;99.90;;;;;;5032139;28;19928;-72
2022/01/02 05:33:01;;;;;;;;;;;13.00;99.90;;;;;;5032400;28;20366;-72
2022/01/02 05:35:27;;;;;;;;;;;13.00;99.90;;;;;;5032160;28;19914;-73
2022/01/02 05:37:52;;;;;;;;;;;13.00;99.90;;;;;;5031457;28;20331;-72
2022/01/02 05:40:18;;;;;;;;;;;12.90;99.90;;;;;;5031135;28;20395;-74
2022/01/02 05:42:43;;;;;;;;;;;12.90;99.90;;;;;;5031006;28;20341;-72
2022/01/02 05:45:09;;;;;;;;;;;12.90;99.90;;;;;;5032398;28;20307;-72
2022/01/02 05:47:36;;;;;;;;;;;13.00;99.90;;;;;;5032133;28;19924;-73
2022/01/02 05:50:02;;;;;;;;;;;12.90;99.90;;;;;;5030969;28;19963;-72
2022/01/02 05:52:31;;;;;;;;;;;12.90;99.90;;;;;;5031919;28;19914;-71
2022/01/02 05:54:56;;;;;;;;;;;12.90;99.90;;;;;;5031920;28;20008;-72
2022/01/02 05:57:21;;;;;;;;;;;13.00;99.90;;;;;;5031803;28;20000;-71
2022/01/02 05:59:47;;;;;;;;;;;13.00;99.90;;;;;;5031294;28;19992;-72
2022/01/02 06:02:13;;;;;;;;;;;13.00;99.90;;;;;;5031808;28;19913;-71
2022/01/02 06:04:38;;;;;;;;;;;13.00;99.90;;;;;;5030393;28;19925;-71
2022/01/02 06:07:04;;;;;;;;;;;13.00;99.90;;;;;;5030850;28;19918;-71
2022/01/02 06:09:30;;;;;;;;;;;13.00;99.90;;;;;;5031808;28;20270;-72
2022/01/02 06:11:55;;;;;;;;;;;13.00;99.90;;;;;;5032239;28;19967;-72
2022/01/02 06:14:21;;;;;;;;;;;13.10;99.90;;;;;;5031864;28;20268;-72
2022/01/02 06:16:46;;;;;;;;;;;13.10;99.90;;;;;;5031592;28;19939;-72
2022/01/02 06:19:12;;;;;;;;;;;13.10;99.90;;;;;;5031717;28;20251;-72
2022/01/02 06:21:37;;;;;;;;;;;13.10;99.90;;;;;;5031754;28;20012;-72
2022/01/02 06:24:03;;;;;;;;;;;13.10;99.90;;;;;;5031977;28;19953;-72
2022/01/02 06:26:28;;;;;;;;;;;13.10;99.90;;;;;;5030734;28;20373;-72
2022/01/02 06:28:54;;;;;;;;;;;13.10;99.90;;;;;;5031651;28;20008;-72
2022/01/02 06:31:19;;;;;;;;;;;13.10;99.90;;;;;;5031440;28;19914;-73
2022/01/02 06:33:45;;;;;;;;;;;13.10;99.90;;;;;;5031583;28;19924;-72
2022/01/02 06:36:11;;;;;;;;;;;13.10;99.90;;;;;;5032030;28;19909;-73
2022/01/02 06:38:36;;;;;;;;;;;13.10;99.90;;;;;;5030784;28;19914;-72
2022/01/02 06:41:02;;;;;;;;;;;13.10;99.90;;;;;;5030533;28;20369;-72
2022/01/02 06:43:27;;;;;;;;;;;13.10;99.90;;;;;;5031463;28;19939;-74
2022/01/02 06:45:53;;;;;;;;;;;13.20;99.90;;;;;;5031524;28;19993;-74
2022/01/02 06:48:18;;;;;;;;;;;13.20;99.90;;;;;;5031916;28;19917;-73
2022/01/02 06:50:44;;;;;;;;;;;13.20;99.90;;;;;;5034194;28;19917;-70
2022/01/02 06:53:10;;;;;;;;;;;13.20;99.90;;;;;;5035132;28;19913;-73
2022/01/02 06:55:35;;;;;;;;;;;13.20;99.90;;;;;;5034152;28;19972;-72
2022/01/02 06:58:02;;;;;;;;;;;13.20;99.90;;;;;;5035029;28;19913;-73
2022/01/02 07:00:27;;;;;;;;;;;13.20;99.90;;;;;;5034793;28;19909;-72
2022/01/02 07:02:53;;;;;;;;;;;13.30;99.90;;;;;;5035370;28;19963;-72
2022/01/02 07:05:18;;;;;;;;;;;13.20;99.90;;;;;;5034178;28;19933;-72
2022/01/02 07:07:44;;;;;;;;;;;13.20;99.90;;;;;;5034791;28;20267;-73
2022/01/02 07:10:14;;;;;;;;;;;13.20;99.90;;;;;;5034805;28;20242;-74
2022/01/02 07:12:39;;;;;;;;;;;13.20;99.90;;;;;;5034615;28;19921;-73
2022/01/02 07:15:08;;;;;;;;;;;13.30;99.90;;;;;;5033923;28;19909;-72
2022/01/02 07:17:34;;;;;;;;;;;13.20;99.90;;;;;;5034592;28;19990;-72
2022/01/02 07:20:00;;;;;;;;;;;13.30;99.90;;;;;;5034677;28;20394;-72
2022/01/02 07:22:25;;;;;;;;;;;13.30;99.90;;;;;;5034896;28;20006;-73
2022/01/02 07:24:51;;;;;;;;;;;13.30;99.90;;;;;;5034363;28;19940;-71
2022/01/02 07:27:20;;;;;;;;;;;13.30;99.90;;;;;;5034741;28;20327;-74
2022/01/02 07:29:46;;;;;;;;;;;13.30;99.90;;;;;;5034625;28;19913;-72
2022/01/02 07:32:12;;;;;;;;;;;13.30;99.90;;;;;;5034259;28;20373;-72
2022/01/02 07:34:37;;;;;;;;;;;13.40;99.90;;;;;;5034169;28;19925;-72
2022/01/02 07:37:03;;;;;;;;;;;13.40;99.90;;;;;;5034272;28;19917;-73
2022/01/02 07:39:28;;;;;;;;;;;13.30;99.90;;;;;;5034433;28;19931;-72
2022/01/02 07:41:54;;;;;;;;;;;13.40;99.90;;;;;;5034646;28;20486;-73
2022/01/02 07:44:19;;;;;;;;;;;13.40;99.90;;;;;;5034079;28;19975;-72
2022/01/02 07:46:45;;;;;;;;;;;13.40;99.90;;;;;;5033090;28;19952;-72
2022/01/02 07:49:10;;;;;;;;;;;13.40;99.90;;;;;;5034083;28;20335;-72
2022/01/02 07:51:36;;;;;;;;;;;13.40;99.90;;;;;;5034106;28;19909;-73
2022/01/02 07:54:01;;;;;;;;;;;13.40;99.90;;;;;;5034324;28;19905;-72
2022/01/02 07:56:27;;;;;;;;;;;13.50;99.90;;;;;;5033932;28;19967;-73
2022/01/02 07:58:52;;;;;;;;;;;13.50;99.90;;;;;;5033792;28;19913;-72
2022/01/02 08:01:21;;;;;;;;;;;13.40;99.90;;;;;;5033198;28;19917;-72
2022/01/02 08:03:46;;;;;;;;;;;13.50;99.90;;;;;;5033634;28;19960;-73
2022/01/02 08:06:12;;;;;;;;;;;13.50;99.90;;;;;;5033986;28;19909;-72
2022/01/02 08:08:37;;;;;;;;;;;13.50;99.90;;;;;;5033665;28;19923;-73
2022/01/02 08:11:03;;;;;;;;;;;13.50;99.90;;;;;;5033520;28;19913;-73
2022/01/02 08:13:28;;;;;;;;;;;13.50;99.90;;;;;;5033488;28;19925;-72
2022/01/02 08:15:54;;;;;;;;;;;13.60;99.90;;;;;;5033544;28;19989;-73
2022/01/02 08:18:20;;;;;;;;;;;13.50;99.90;;;;;;5033329;28;19992;-72
2022/01/02 08:20:45;;;;;;;;;;;13.50;99.90;;;;;;5033703;28;19917;-72
2022/01/02 08:23:12;;;;;;;;;;;13.60;99.90;;;;;;5033327;28;19920;-73
2022/01/02 08:25:37;;;;;;;;;;;13.50;99.90;;;;;;5033229;28;20343;-73
2022/01/02 08:28:03;;;;;;;;;;;13.50;99.90;;;;;;5033415;28;19913;-71
2022/01/02 08:30:28;;;;;;;;;;;13.50;99.90;;;;;;5033195;28;19924;-73
2022/01/02 08:32:54;;;;;;;;;;;13.50;99.90;;;;;;5033480;28;19967;-72
2022/01/02 08:35:19;;;;;;;;;;;13.50;99.90;;;;;;5033385;28;19917;-73
2022/01/02 08:37:45;;;;;;;;;;;13.60;99.90;;;;;;5033010;28;20346;-74
2022/01/02 08:40:10;;;;;;;;;;;13.60;99.90;;;;;;5033043;28;20346;-72
2022/01/02 08:42:36;;;;;;;;;;;13.60;99.90;;;;;;5033029;28;19945;-73
2022/01/02 08:45:02;;;;;;;;;;;13.50;99.90;;;;;;5033298;28;19920;-73
2022/01/02 08:47:27;;;;;;;;;;;13.50;99.90;;;;;;5033100;28;19967;-73
2022/01/02 08:49:53;;;;;;;;;;;13.50;99.90;;;;;;5032826;28;19913;-72
2022/01/02 08:52:19;;;;;;;;;;;13.50;99.90;;;;;;5031770;28;19921;-73
2022/01/02 08:54:44;;;;;;;;;;;13.50;99.90;;;;;;5032962;28;20389;-72
2022/01/02 08:57:10;;;;;;;;;;;13.50;99.90;;;;;;5033367;28;20239;-73
2022/01/02 08:59:35;;;;;;;;;;;13.50;99.90;;;;;;5032823;28;19914;-72
2022/01/02 09:02:01;;;;;;;;;;;13.40;99.90;;;;;;5032771;28;19913;-74
2022/01/02 09:04:26;;;;;;;;;;;13.40;99.90;;;;;;5032170;28;19924;-73
2022/01/02 09:06:52;;;;;;;;;;;13.40;99.90;;;;;;5032684;28;19913;-73
2022/01/02 09:09:18;;;;;;;;;;;13.40;99.90;;;;;;5032924;28;19935;-73
2022/01/02 09:11:43;;;;;;;;;;;13.40;99.90;;;;;;5031432;28;19923;-74
2022/01/02 09:14:09;;;;;;;;;;;13.50;99.90;;;;;;5031720;28;19929;-70
2022/01/02 09:16:34;;;;;;;;;;;13.50;99.90;;;;;;5032605;28;20118;-72
2022/01/02 09:19:00;;;;;;;;;;;13.50;99.90;;;;;;5032432;28;19913;-72
2022/01/02 09:21:25;;;;;;;;;;;13.50;99.90;;;;;;5032250;28;19909;-73
2022/01/02 09:23:51;;;;;;;;;;;13.50;99.90;;;;;;5032465;28;19909;-72
2022/01/02 09:26:17;;;;;;;;;;;13.50;99.90;;;;;;5032572;28;19918;-73
2022/01/02 09:28:42;;;;;;;;;;;13.50;99.90;;;;;;5032264;28;20059;-71
2022/01/02 09:31:07;;;;;;;;;;;13.50;99.90;;;;;;5032114;28;19913;-72
2022/01/02 09:33:33;;;;;;;;;;;13.40;99.90;;;;;;5032093;28;19955;-74
2022/01/02 09:35:59;;;;;;;;;;;13.40;99.90;;;;;;5032651;28;20327;-72
2022/01/02 09:38:24;;;;;;;;;;;13.40;99.90;;;;;;5032128;28;19928;-72
2022/01/02 09:40:50;;;;;;;;;;;13.40;99.90;;;;;;5032136;28;19982;-73
2022/01/02 09:43:16;;;;;;;;;;;13.40;99.90;;;;;;5031849;28;20433;-71
2022/01/02 09:45:45;;;;;;;;;;;13.40;99.90;;;;;;5031427;28;20252;-72
2022/01/02 09:48:11;;;;;;;;;;;13.40;99.90;;;;;;5032124;28;19909;-72
2022/01/02 09:50:38;;;;;;;;;;;13.30;99.90;;;;;;5030817;28;20004;-72
2022/01/02 09:53:05;;;;;;;;;;;13.30;99.90;;;;;;5031943;28;19997;-72
2022/01/02 09:55:33;;;;;;;;;;;13.30;99.90;;;;;;5031658;28;19913;-73
2022/01/02 09:58:00;;;;;;;;;;;13.30;99.90;;;;;;5030867;28;19917;-72
2022/01/02 10:00:27;;;;;;;;;;;13.30;99.90;;;;;;5030836;28;19940;-73
2022/01/02 10:03:00;;;;;;;;;;;13.30;99.90;;;;;;5032124;28;19992;-74
2022/01/02 10:05:26;;;;;;;;;;;13.30;99.90;;;;;;5031730;28;19967;-73
2022/01/02 10:07:52;;;;;;;;;;;13.20;99.90;;;;;;5030827;28;19917;-72
2022/01/02 10:10:18;;;;;;;;;;;13.20;99.90;;;;;;5031624;28;20427;-73
2022/01/02 10:12:43;;;;;;;;;;;13.20;99.90;;;;;;5031054;28;19921;-73
2022/01/02 10:15:14;;;;;;;;;;;13.20;99.90;;;;;;5031103;28;19909;-74
2022/01/02 10:17:59;;;;;;;;;;;13.20;99.90;;;;;;5031872;28;19913;-73
2022/01/02 10:20:27;;;;;;;;;;;13.20;99.90;;;;;;5031853;28;20343;-73
2022/01/02 10:23:11;;;;;;;;;;;13.20;99.90;;;;;;5030826;28;19914;-74
2022/01/02 10:25:53;;;;;;;;;;;13.30;99.90;;;;;;5034267;28;19939;-73
2022/01/02 10:28:41;;;;;;;;;;;13.20;99.90;;;;;;5035562;28;20376;-73
2022/01/02 10:31:14;;;;;;;;;;;13.20;99.90;;;;;;5035969;28;19936;-73
2022/01/02 10:33:52;;;;;;;;;;;13.20;99.90;;;;;;5035557;28;19976;-73
2022/01/02 10:36:27;;;;;;;;;;;13.10;99.90;;;;;;5035805;28;19909;-73
2022/01/02 10:39:06;;;;;;;;;;;13.20;99.90;;;;;;5034132;28;19913;-74
2022/01/02 10:41:39;;;;;;;;;;;13.10;99.90;;;;;;5035302;28;19920;-75
2022/01/02 10:44:22;;;;;;;;;;;13.20;99.90;;;;;;5034330;28;19967;-75
2022/01/02 10:47:25;;;;;;;;;;;13.20;99.90;;;;;;5035166;28;19939;-73
2022/01/02 10:50:07;;;;;;;;;;;13.20;99.90;;;;;;5032748;28;20000;-72
2022/01/02 10:52:32;;;;;;;;;;;13.20;99.90;;;;;;5031796;28;20111;-73
2022/01/02 10:54:59;;;;;;;;;;;13.20;99.90;;;;;;5035002;28;20021;-72
2022/01/02 10:57:25;;;;;;;;;;;13.20;99.90;;;;;;5035136;28;19999;-72
2022/01/02 10:59:54;;;;;;;;;;;13.20;99.90;;;;;;5035486;28;20270;-74
2022/01/02 11:02:20;;;;;;;;;;;13.20;99.90;;;;;;5034787;28;19924;-74
2022/01/02 11:04:47;;;;;;;;;;;13.30;99.90;;;;;;5034536;28;19917;-73
2022/01/02 11:07:18;;;;;;;;;;;13.30;99.90;;;;;;5034575;28;20274;-71
2022/01/02 11:09:44;;;;;;;;;;;13.40;99.90;;;;;;5034862;28;19924;-72
2022/01/02 11:12:10;;;;;;;;;;;13.40;99.90;;;;;;5034959;28;19910;-72
2022/01/02 11:14:36;;;;;;;;;;;13.40;99.90;;;;;;5034728;28;20020;-73
2022/01/02 11:17:02;;;;;;;;;;;13.60;99.90;;;;;;5034664;28;20351;-73
2022/01/02 11:19:27;;;;;;;;;;;13.60;99.90;;;;;;5033692;28;19987;-73
2022/01/02 11:21:54;;;;;;;;;;;13.70;99.90;;;;;;5034438;28;19917;-73
2022/01/02 11:24:28;;;;;;;;;;;13.80;99.90;;;;;;5034276;28;19921;-73
2022/01/02 11:26:59;;;;;;;;;;;13.80;99.90;;;;;;5035104;28;19992;-73
2022/01/02 11:29:29;;;;;;;;;;;13.90;99.90;;;;;;5034396;28;20264;-73
2022/01/02 11:31:55;;;;;;;;;;;13.90;99.90;;;;;;5034141;28;19929;-73
2022/01/02 11:34:24;;;;;;;;;;;13.90;99.90;;;;;;5034133;28;19963;-73
2022/01/02 11:36:50;;;;;;;;;;;14.10;99.90;;;;;;5033112;28;19917;-73
2022/01/02 11:39:18;;;;;;;;;;;14.10;99.60;;;;;;5033494;28;21234;-72
2022/01/02 11:41:48;;;;;;;;;;;14.20;99.20;;;;;;5034016;28;19917;-73
2022/01/02 11:44:20;;;;;;;;;;;14.20;99.00;;;;;;5034097;28;19928;-73
2022/01/02 11:46:52;;;;;;;;;;;14.20;98.70;;;;;;5033947;28;19917;-73
2022/01/02 11:49:18;;;;;;;;;;;14.30;98.70;;;;;;5033796;28;20339;-72
2022/01/02 11:51:56;;;;;;;;;;;14.20;98.60;;;;;;5033970;28;20133;-72
2022/01/02 11:54:27;;;;;;;;;;;14.20;98.40;;;;;;5032864;28;19983;-73
2022/01/02 11:56:56;;;;;;;;;;;14.30;98.50;;;;;;5034252;28;19920;-73
2022/01/02 11:59:40;;;;;;;;;;;14.20;98.60;;;;;;5033763;28;19914;-72
2022/01/02 12:02:09;;;;;;;;;;;14.20;98.50;;;;;;5033900;28;20327;-73
2022/01/02 12:04:54;;;;;;;;;;;14.20;98.60;;;;;;5033696;28;20011;-74
2022/01/02 12:07:34;;;;;;;;;;;14.20;98.90;;;;;;5033711;28;19967;-72
2022/01/02 12:10:12;;;;;;;;;;;14.10;99.30;;;;;;5033549;28;19975;-72
2022/01/02 12:13:05;;;;;;;;;;;14.10;99.90;;;;;;5032749;28;20249;-73
2022/01/02 12:15:34;;;;;;;;;;;14.00;99.90;;;;;;5033109;28;19909;-74
2022/01/02 12:18:26;;;;;;;;;;;14.00;99.90;;;;;;5033873;28;19917;-73
2022/01/02 12:20:52;;;;;;;;;;;14.00;99.90;;;;;;5033503;28;19963;-73
2022/01/02 12:23:33;;;;;;;;;;;14.00;99.90;;;;;;5032211;28;19921;-73
2022/01/02 12:26:08;;;;;;;;;;;14.10;99.90;;;;;;5033175;28;19988;-73
2022/01/02 12:28:38;;;;;;;;;;;14.20;99.90;;;;;;5033085;28;20036;-73
2022/01/02 12:31:04;;;;;;;;;;;14.20;99.80;;;;;;5032065;28;19921;-73
2022/01/02 12:33:30;;;;;;;;;;;14.30;99.70;;;;;;5032825;28;19936;-73
2022/01/02 12:35:56;;;;;;;;;;;14.30;99.80;;;;;;5033510;28;19913;-73
2022/01/02 12:38:22;;;;;;;;;;;14.30;99.60;;;;;;5031958;28;19960;-74
2022/01/02 12:40:49;;;;;;;;;;;14.30;99.50;;;;;;5033005;28;19913;-73
2022/01/02 12:43:22;;;;;;;;;;;14.20;99.50;;;;;;5032843;28;19917;-73
2022/01/02 12:45:52;;;;;;;;;;;14.30;99.60;;;;;;5031778;28;19929;-73
2022/01/02 12:48:30;;;;;;;;;;;14.40;99.30;;;;;;5033119;28;19920;-74
2022/01/02 12:51:09;;;;;;;;;;;14.50;99.40;;;;;;5032940;28;19912;-74
2022/01/02 12:53:35;;;;;;;;;;;14.50;98.90;;;;;;5031803;28;19927;-74
2022/01/02 12:56:00;;;;;;;;;;;14.50;99.00;;;;;;5032953;28;20015;-73
2022/01/02 12:58:26;;;;;;;;;;;14.60;99.00;;;;;;5032526;28;19943;-73
2022/01/02 13:00:51;;;;;;;;;;;14.60;99.00;;;;;;5031633;28;19913;-73
2022/01/02 13:03:17;;;;;;;;;;;14.60;98.80;;;;;;5032851;28;20337;-74
2022/01/02 13:05:49;;;;;;;;;;;14.60;98.70;;;;;;5032524;28;19917;-73
2022/01/02 13:08:21;;;;;;;;;;;14.50;98.60;;;;;;5032632;28;19937;-74
2022/01/02 13:10:47;;;;;;;;;;;14.40;98.30;;;;;;5031367;28;20361;-73
2022/01/02 13:13:25;;;;;;;;;;;14.50;98.40;;;;;;5032071;28;19917;-72
2022/01/02 13:15:51;;;;;;;;;;;14.50;98.20;;;;;;5032522;28;20008;-73
2022/01/02 13:18:16;;;;;;;;;;;14.50;98.00;;;;;;5031771;28;19941;-73
2022/01/02 13:20:43;;;;;;;;;;;14.50;98.10;;;;;;5032261;28;19920;-72
2022/01/02 13:23:09;;;;;;;;;;;14.40;98.00;;;;;;5032404;28;20343;-73
2022/01/02 13:25:34;;;;;;;;;;;14.40;97.90;;;;;;5032118;28;19932;-72
2022/01/02 13:28:01;;;;;;;;;;;14.40;97.90;;;;;;5032091;28;19928;-72
2022/01/02 13:30:28;;;;;;;;;;;14.40;98.00;;;;;;5032120;28;19909;-73
2022/01/02 13:32:55;;;;;;;;;;;14.40;97.80;;;;;;5031589;28;20236;-73
2022/01/02 13:35:22;;;;;;;;;;;14.40;97.90;;;;;;5031990;28;20346;-73
2022/01/02 13:37:51;;;;;;;;;;;14.40;97.80;;;;;;5031262;28;19964;-73
2022/01/02 13:40:16;;;;;;;;;;;14.40;97.90;;;;;;5031981;28;19914;-73
2022/01/02 13:42:43;;;;;;;;;;;14.50;98.00;;;;;;5031900;28;20049;-74
2022/01/02 13:45:16;;;;;;;;;;;14.40;97.60;;;;;;5032679;28;19928;-73
2022/01/02 13:47:42;;;;;;;;;;;14.40;97.60;;;;;;5031938;28;20052;-72
2022/01/02 13:50:09;;;;;;;;;;;14.40;97.80;;;;;;5032067;28;20354;-72
2022/01/02 13:52:54;;;;;;;;;;;14.40;98.00;;;;;;5030979;28;20007;-72
2022/01/02 13:55:19;;;;;;;;;;;14.40;97.60;;;;;;5030728;28;19921;-73
2022/01/02 13:57:45;;;;;;;;;;;14.30;97.60;;;;;;5031648;28;19920;-73
2022/01/02 14:00:14;;;;;;;;;;;14.40;97.50;;;;;;5031564;28;19909;-73
2022/01/02 14:02:39;;;;;;;;;;;14.30;97.50;;;;;;5031590;28;19933;-73
2022/01/02 14:05:05;;;;;;;;;;;14.30;97.40;;;;;;5031629;28;19917;-73
2022/01/02 14:07:30;;;;;;;;;;;14.30;97.50;;;;;;5030676;28;19913;-72
2022/01/02 14:09:56;;;;;;;;;;;14.30;97.50;;;;;;5031679;28;19913;-72
2022/01/02 14:12:25;;;;;;;;;;;14.30;97.50;;;;;;5031622;28;20004;-75
2022/01/02 14:15:02;;;;;;;;;;;14.30;97.60;;;;;;5031808;28;19948;-73
2022/01/02 14:17:31;;;;;;;;;;;14.30;97.60;;;;;;5031655;28;19913;-72
2022/01/02 14:19:57;;;;;;;;;;;14.40;97.70;;;;;;5031750;28;20000;-72